createdAt,value
2022-09-14T05:01:44.213Z,99163.60
2022-09-14T05:04:13.450Z,99175.00
2022-09-14T05:06:44.629Z,99177.60
2022-09-14T05:09:19.073Z,99173.20
2022-09-14T05:11:49.994Z,99173.60
2022-09-14T05:14:20.319Z,99171.60
2022-09-14T05:16:48.941Z,99173.00
2022-09-14T05:19:18.939Z,99163.60
2022-09-14T05:21:48.153Z,99160.60
2022-09-14T05:24:19.589Z,99166.20
2022-09-14T05:26:48.810Z,99174.80
2022-09-14T05:29:19.710Z,99168.40
2022-09-14T05:31:48.850Z,99166.00
2022-09-14T05:34:18.991Z,99169.20
2022-09-14T05:36:47.862Z,99165.20
2022-09-14T05:39:21.095Z,99165.60
2022-09-14T05:41:52.709Z,99168.60
2022-09-14T05:44:21.489Z,99167.60
2022-09-14T05:46:50.246Z,99166.00
2022-09-14T05:49:19.269Z,99165.60
2022-09-14T05:51:47.984Z,99156.80
2022-09-14T05:54:16.741Z,99156.60
2022-09-14T05:56:45.752Z,99158.80
2022-09-14T05:59:14.650Z,99156.00
2022-09-14T06:01:43.599Z,99153.20
2022-09-14T06:04:13.031Z,99152.40
2022-09-14T06:06:46.928Z,99156.20
2022-09-14T06:09:24.949Z,99159.80
2022-09-14T06:11:53.630Z,99157.60
2022-09-14T06:14:22.431Z,99161.20
2022-09-14T06:16:51.225Z,99153.80
2022-09-14T06:19:20.090Z,99152.40
2022-09-14T06:21:49.089Z,99153.60
2022-09-14T06:24:17.889Z,99154.40
2022-09-14T06:26:46.575Z,99154.40
2022-09-14T06:29:15.449Z,99144.80
2022-09-14T06:31:44.354Z,99148.00
2022-09-14T06:34:13.090Z,99149.00
2022-09-14T06:36:41.829Z,99150.40
2022-09-14T06:39:11.440Z,99152.00
2022-09-14T06:41:40.110Z,99151.60
2022-09-14T06:44:08.909Z,99152.80
2022-09-14T06:46:37.689Z,99150.20
2022-09-14T06:49:11.771Z,99145.80
2022-09-14T06:51:44.233Z,99151.40
2022-09-14T06:54:18.295Z,99146.80
2022-09-14T06:56:47.549Z,99146.40
2022-09-14T06:59:18.203Z,99147.00
2022-09-14T07:01:50.391Z,99145.80
2022-09-14T07:04:19.715Z,99147.80
2022-09-14T07:06:50.630Z,99150.40
2022-09-14T07:09:21.052Z,99153.00
2022-09-14T07:11:49.848Z,99146.40
2022-09-14T07:14:20.550Z,99149.60
2022-09-14T07:16:49.700Z,99145.40
2022-09-14T07:19:18.849Z,99144.20
2022-09-14T07:21:49.028Z,99146.40
2022-09-14T07:24:18.050Z,99147.00
2022-09-14T07:26:46.807Z,99148.00
2022-09-14T07:29:20.459Z,99153.80
2022-09-14T07:31:54.810Z,99147.00
2022-09-14T07:34:24.510Z,99142.80
2022-09-14T07:36:53.301Z,99147.00
2022-09-14T07:39:22.291Z,99140.80
2022-09-14T07:41:51.189Z,99137.20
2022-09-14T07:44:20.190Z,99142.60
2022-09-14T07:46:48.989Z,99143.40
2022-09-14T07:49:18.616Z,99143.00
2022-09-14T07:51:47.369Z,99143.80
2022-09-14T07:54:18.710Z,99144.80
2022-09-14T07:56:51.189Z,99145.80
2022-09-14T07:59:37.165Z,99146.80
2022-09-14T08:02:12.227Z,99147.60
2022-09-14T08:04:40.898Z,99144.20
2022-09-14T08:07:10.175Z,99139.60
2022-09-14T08:09:39.953Z,99139.40
2022-09-14T08:12:08.702Z,99141.80
2022-09-14T08:14:37.701Z,99137.20
2022-09-14T08:17:06.382Z,99135.20
2022-09-14T08:19:35.970Z,99138.20
2022-09-14T08:22:05.589Z,99136.40
2022-09-14T08:24:34.212Z,99131.40
2022-09-14T08:27:02.782Z,99133.80
2022-09-14T08:29:31.550Z,99130.20
2022-09-14T08:32:00.405Z,99130.80
2022-09-14T08:34:29.430Z,99133.80
2022-09-14T08:36:58.337Z,99133.60
2022-09-14T08:39:27.229Z,99133.80
2022-09-14T08:42:00.539Z,99128.40
2022-09-14T08:44:49.366Z,99133.40
2022-09-14T08:47:34.722Z,99133.80
2022-09-14T08:50:20.391Z,99131.20
2022-09-14T08:52:55.752Z,99134.20
2022-09-14T08:55:49.152Z,99128.60
2022-09-14T08:58:48.971Z,99128.20
2022-09-14T09:01:43.789Z,99130.40
2022-09-14T09:04:56.572Z,99130.80
2022-09-14T09:07:49.502Z,99131.80
2022-09-14T09:10:19.331Z,99131.60
2022-09-14T09:13:01.951Z,99133.80
2022-09-14T09:15:40.480Z,99132.40
2022-09-14T09:18:19.442Z,99129.40
2022-09-14T09:21:04.551Z,99132.60
2022-09-14T09:23:35.669Z,99127.40
2022-09-14T09:26:06.871Z,99130.80
2022-09-14T09:28:41.691Z,99130.40
2022-09-14T09:31:15.472Z,99129.20
2022-09-14T09:33:51.160Z,99131.80
2022-09-14T09:36:20.589Z,99128.80
2022-09-14T09:38:49.257Z,99129.80
2022-09-14T09:41:26.061Z,99127.20
2022-09-14T09:44:09.861Z,99123.20
2022-09-14T09:46:41.184Z,99125.40
2022-09-14T09:49:26.990Z,99123.80
2022-09-14T09:51:56.921Z,99119.20
2022-09-14T09:54:32.830Z,99119.20
2022-09-14T09:57:07.390Z,99117.00
2022-09-14T09:59:41.493Z,99117.00
2022-09-14T10:02:32.678Z,99121.80
2022-09-14T10:05:29.329Z,99119.60
2022-09-14T10:08:10.768Z,99120.80
2022-09-14T10:10:45.018Z,99124.20
2022-09-14T10:13:35.353Z,99120.00
2022-09-14T10:16:30.625Z,99118.20
2022-09-14T10:19:03.251Z,99114.00
2022-09-14T10:21:32.351Z,99115.00
2022-09-14T10:24:18.020Z,99115.00
2022-09-14T10:26:46.708Z,99112.80
2022-09-14T10:29:45.090Z,99115.20
2022-09-14T10:32:26.062Z,99107.20
2022-09-14T10:34:54.852Z,99101.20
2022-09-14T10:38:06.341Z,99103.80
2022-09-14T10:40:45.780Z,99106.60
2022-09-14T10:43:31.072Z,99100.20
2022-09-14T10:46:05.754Z,99101.40
2022-09-14T10:48:59.149Z,99099.60
2022-09-14T10:51:53.341Z,99097.40
2022-09-14T10:55:04.722Z,99094.60
2022-09-14T10:58:00.990Z,99090.20
2022-09-14T11:00:56.792Z,99093.80
2022-09-14T11:03:45.237Z,99091.00
2022-09-14T11:06:20.460Z,99085.20
2022-09-14T11:09:02.109Z,99087.00
2022-09-14T11:12:08.841Z,99088.80
2022-09-14T11:15:09.581Z,99085.00
2022-09-14T11:18:14.811Z,99081.00
2022-09-14T11:21:06.129Z,99081.40
2022-09-14T11:23:48.094Z,99082.20
2022-09-14T11:26:32.397Z,99082.20
2022-09-14T11:29:34.429Z,99079.00
2022-09-14T11:32:23.389Z,99074.60
2022-09-14T11:35:18.929Z,99073.40
2022-09-14T11:37:50.075Z,99064.60
2022-09-14T11:40:29.881Z,99061.60
2022-09-14T11:43:15.889Z,99056.60
2022-09-14T11:45:53.618Z,99055.20
2022-09-14T11:48:44.828Z,99052.60
2022-09-14T11:51:22.901Z,99051.00
2022-09-14T11:53:52.774Z,99044.40
2022-09-14T11:56:29.730Z,99042.20
2022-09-14T11:59:07.926Z,99041.20
2022-09-14T12:01:38.159Z,99041.80
2022-09-14T12:04:17.018Z,99040.40
2022-09-14T12:06:50.450Z,99042.20
2022-09-14T12:09:38.930Z,99047.00
2022-09-14T12:12:33.323Z,99044.40
2022-09-14T12:15:03.839Z,99041.00
2022-09-14T12:17:39.931Z,99038.40
2022-09-14T12:20:50.842Z,99037.40
2022-09-14T12:23:38.219Z,99050.80
2022-09-14T12:26:07.008Z,99048.40
2022-09-14T12:28:36.509Z,99052.00
2022-09-14T12:31:13.692Z,99049.20
2022-09-14T12:33:44.441Z,99048.00
2022-09-14T12:36:22.230Z,99038.20
2022-09-14T12:38:50.917Z,99029.00
2022-09-14T12:41:19.811Z,99029.00
2022-09-14T12:43:55.730Z,99032.20
2022-09-14T12:46:24.285Z,99029.00
2022-09-14T12:49:38.610Z,99029.40
2022-09-14T12:52:27.981Z,99033.20
2022-09-14T12:55:21.577Z,99033.00
2022-09-14T12:58:25.489Z,99017.40
2022-09-14T13:01:45.760Z,99016.40
2022-09-14T13:04:33.491Z,99009.60
2022-09-14T13:07:13.140Z,99005.60
2022-09-14T13:09:50.362Z,99011.60
2022-09-14T13:12:37.054Z,99009.80
2022-09-14T13:15:27.431Z,98991.60
2022-09-14T13:17:58.508Z,98978.40
2022-09-14T13:20:28.637Z,98977.80
2022-09-14T13:22:58.589Z,98980.20
2022-09-14T13:25:38.329Z,98977.60
2022-09-14T13:28:17.173Z,98972.20
2022-09-14T13:30:57.074Z,98964.80
2022-09-14T13:33:26.309Z,98972.80
2022-09-14T13:36:00.428Z,98975.40
2022-09-14T13:38:38.132Z,98971.00
2022-09-14T13:41:19.753Z,98965.60
2022-09-14T13:43:50.595Z,98965.00
2022-09-14T13:46:20.707Z,98967.80
2022-09-14T13:48:50.863Z,98961.40
2022-09-14T13:51:29.905Z,98950.60
2022-09-14T13:54:36.834Z,98945.60
2022-09-14T13:57:26.311Z,98942.20
2022-09-14T14:00:23.214Z,98935.80
2022-09-14T14:03:03.458Z,98931.00
2022-09-14T14:05:41.689Z,98934.20
2022-09-14T14:08:46.735Z,98933.60
2022-09-14T14:11:31.775Z,98931.80
2022-09-14T14:14:16.889Z,98930.80
2022-09-14T14:17:22.956Z,98932.60
2022-09-14T14:19:56.366Z,98930.20
2022-09-14T14:22:33.989Z,98932.20
2022-09-14T14:25:20.408Z,98930.00
2022-09-14T14:27:49.439Z,98934.40
2022-09-14T14:30:23.596Z,98934.20
2022-09-14T14:32:55.228Z,98931.40
2022-09-14T14:35:28.548Z,98937.20
2022-09-14T14:37:58.108Z,98934.60
2022-09-14T14:40:28.203Z,98932.60
2022-09-14T14:42:59.448Z,98930.40
2022-09-14T14:45:28.550Z,98929.20
2022-09-14T14:47:58.937Z,98932.80
2022-09-14T14:50:34.361Z,98931.00
2022-09-14T14:53:05.589Z,98926.60
2022-09-14T14:55:37.721Z,98927.40
2022-09-14T14:58:14.529Z,98923.80
2022-09-14T15:00:44.023Z,98924.20
2022-09-14T15:03:13.076Z,98926.40
2022-09-14T15:05:46.726Z,98918.40
2022-09-14T15:08:20.243Z,98918.20
2022-09-14T15:10:55.368Z,98915.40
2022-09-14T15:13:24.177Z,98912.00
2022-09-14T15:15:52.909Z,98915.00
2022-09-14T15:18:21.829Z,98919.80
2022-09-14T15:20:50.833Z,98916.80
2022-09-14T15:23:19.508Z,98913.80
2022-09-14T15:25:52.189Z,98914.80
2022-09-14T15:28:23.193Z,98914.60
2022-09-14T15:30:52.748Z,98916.00
2022-09-14T15:33:21.687Z,98914.40
2022-09-14T15:35:57.314Z,98913.80
2022-09-14T15:38:27.180Z,98914.00
2022-09-14T15:40:56.128Z,98917.20
2022-09-14T15:43:25.087Z,98919.00
2022-09-14T15:45:54.373Z,98912.20
2022-09-14T15:48:26.291Z,98914.60
2022-09-14T15:50:56.268Z,98915.00
2022-09-14T15:53:25.261Z,98923.00
2022-09-14T15:55:54.257Z,98917.80
2022-09-14T15:58:23.140Z,98918.80
2022-09-14T16:00:51.994Z,98920.00
2022-09-14T16:03:20.829Z,98915.00
2022-09-14T16:05:49.728Z,98912.60
2022-09-14T16:08:19.327Z,98908.60
2022-09-14T16:10:48.869Z,98906.20
2022-09-14T16:13:17.621Z,98904.60
2022-09-14T16:15:46.808Z,98902.80
2022-09-14T16:18:15.409Z,98900.20
2022-09-14T16:20:44.289Z,98899.60
2022-09-14T16:23:13.289Z,98900.60
2022-09-14T16:25:42.069Z,98903.20
2022-09-14T16:28:11.069Z,98903.60
2022-09-14T16:30:39.849Z,98904.60
2022-09-14T16:33:08.534Z,98901.60
2022-09-14T16:35:37.529Z,98899.20
2022-09-14T16:38:06.429Z,98899.20
2022-09-14T16:40:35.255Z,98897.40
2022-09-14T16:43:04.417Z,98901.60
2022-09-14T16:45:33.258Z,98894.60
2022-09-14T16:48:02.869Z,98899.80
2022-09-14T16:50:31.812Z,98901.40
2022-09-14T16:53:00.688Z,98898.00
2022-09-14T16:55:31.532Z,98900.40
2022-09-14T16:58:00.530Z,98897.40
2022-09-14T17:00:29.468Z,98896.00
2022-09-14T17:02:58.709Z,98891.60
2022-09-14T17:05:27.508Z,98895.20
2022-09-14T17:07:56.291Z,98888.40
2022-09-14T17:10:25.091Z,98894.60
2022-09-14T17:12:54.193Z,98890.80
2022-09-14T17:15:23.480Z,98885.60
2022-09-14T17:17:52.168Z,98881.60
2022-09-14T17:20:21.072Z,98884.60
2022-09-14T17:22:50.149Z,98887.80
2022-09-14T17:25:19.041Z,98886.80
2022-09-14T17:27:48.026Z,98886.40
2022-09-14T17:30:17.948Z,98887.80
2022-09-14T17:32:46.848Z,98887.40
2022-09-14T17:35:16.149Z,98884.00
2022-09-14T17:37:45.021Z,98882.20
2022-09-14T17:40:14.396Z,98884.00
2022-09-14T17:42:43.228Z,98889.60
2022-09-14T17:45:12.830Z,98896.60
2022-09-14T17:47:41.646Z,98890.80
2022-09-14T17:50:10.809Z,98883.60
2022-09-14T17:52:39.929Z,98879.80
2022-09-14T17:55:09.348Z,98883.00
2022-09-14T17:57:38.209Z,98875.20
2022-09-14T18:00:08.250Z,98875.80
2022-09-14T18:02:37.201Z,98877.60
2022-09-14T18:05:06.229Z,98868.00
2022-09-14T18:07:35.230Z,98867.40
2022-09-14T18:10:04.729Z,98864.60
2022-09-14T18:12:36.789Z,98868.00
2022-09-14T18:15:06.909Z,98866.00
2022-09-14T18:17:35.890Z,98865.80
2022-09-14T18:20:06.608Z,98862.20
2022-09-14T18:22:39.229Z,98859.40
2022-09-14T18:25:09.958Z,98858.40
2022-09-14T18:27:38.829Z,98858.20
2022-09-14T18:30:08.931Z,98854.00
2022-09-14T18:32:37.648Z,98851.20
2022-09-14T18:35:07.649Z,98854.60
2022-09-14T18:37:37.088Z,98848.20
2022-09-14T18:40:06.702Z,98851.40
2022-09-14T18:42:35.446Z,98853.20
2022-09-14T18:45:04.870Z,98853.20
2022-09-14T18:47:33.751Z,98856.20
2022-09-14T18:50:02.528Z,98858.20
2022-09-14T18:52:31.428Z,98858.00
2022-09-14T18:55:00.333Z,98854.40
2022-09-14T18:57:29.112Z,98857.80
2022-09-14T18:59:57.689Z,98859.40
2022-09-14T19:02:26.712Z,98857.80
2022-09-14T19:04:55.990Z,98860.80
2022-09-14T19:07:26.931Z,98860.00
2022-09-14T19:09:57.451Z,98863.20
2022-09-14T19:12:26.354Z,98861.00
2022-09-14T19:14:55.657Z,98852.80
2022-09-14T19:17:24.649Z,98852.40
2022-09-14T19:19:53.757Z,98847.00
2022-09-14T19:22:22.628Z,98840.20
2022-09-14T19:24:51.530Z,98839.60
2022-09-14T19:27:20.828Z,98833.80
2022-09-14T19:29:49.909Z,98828.40
2022-09-14T19:32:19.828Z,98824.60
2022-09-14T19:34:49.750Z,98821.20
2022-09-14T19:37:18.529Z,98820.80
2022-09-14T19:39:47.264Z,98815.40
2022-09-14T19:42:16.017Z,98821.00
2022-09-14T19:44:44.709Z,98822.00
2022-09-14T19:47:13.497Z,98817.20
2022-09-14T19:49:42.590Z,98820.60
2022-09-14T19:52:11.369Z,98826.40
2022-09-14T19:54:40.250Z,98825.60
2022-09-14T19:57:09.148Z,98818.40
2022-09-14T19:59:38.650Z,98814.20
2022-09-14T20:02:11.630Z,98808.60
2022-09-14T20:04:41.156Z,98808.00
2022-09-14T20:07:10.050Z,98804.80
2022-09-14T20:09:39.248Z,98804.00
2022-09-14T20:12:08.329Z,98804.00
2022-09-14T20:14:37.628Z,98802.00
2022-09-14T20:17:07.049Z,98804.40
2022-09-14T20:19:36.848Z,98804.20
2022-09-14T20:22:05.850Z,98801.40
2022-09-14T20:24:36.369Z,98798.00
2022-09-14T20:27:05.289Z,98793.60
2022-09-14T20:29:35.740Z,98793.40
2022-09-14T20:32:06.429Z,98796.00
2022-09-14T20:34:35.117Z,98800.00
2022-09-14T20:37:04.208Z,98797.40
2022-09-14T20:39:36.491Z,98793.40
2022-09-14T20:42:06.350Z,98796.00
2022-09-14T20:44:35.098Z,98790.40
2022-09-14T20:47:04.189Z,98784.20
2022-09-14T20:49:33.229Z,98781.20
2022-09-14T20:52:03.349Z,98780.00
2022-09-14T20:54:32.209Z,98778.00
2022-09-14T20:57:04.517Z,98778.40
2022-09-14T20:59:34.169Z,98777.00
2022-09-14T21:02:05.571Z,98773.00
2022-09-14T21:04:36.231Z,98780.20
2022-09-14T21:07:06.054Z,98776.40
2022-09-14T21:09:35.969Z,98772.20
2022-09-14T21:12:05.269Z,98774.60
2022-09-14T21:14:34.071Z,98770.20
2022-09-14T21:17:02.651Z,98772.40
2022-09-14T21:19:31.749Z,98773.60
2022-09-14T21:22:00.432Z,98766.60
2022-09-14T21:24:31.473Z,98771.00
2022-09-14T21:27:00.177Z,98765.00
2022-09-14T21:29:28.957Z,98766.00
2022-09-14T21:31:57.738Z,98759.80
2022-09-14T21:34:26.928Z,98760.20
2022-09-14T21:36:55.631Z,98755.60
2022-09-14T21:39:27.535Z,98759.60
2022-09-14T21:41:59.701Z,98757.60
2022-09-14T21:44:34.912Z,98761.60
2022-09-14T21:47:05.129Z,98761.40
2022-09-14T21:49:34.011Z,98763.20
2022-09-14T21:52:04.250Z,98759.60
2022-09-14T21:54:33.009Z,98759.40
2022-09-14T21:57:01.809Z,98760.40
